Time;durP1;ratioP1;P1;durP2;ratioP2;P2;SDS_P1;SDS_P2;PMS_P1;PMS_P2;Temp;Humidity;BMP_temperature;BMP_pressure;BME280_temperature;BME280_humidity;BME280_pressure;Samples;Min_cycle;Max_cycle;Signal;HPM_P1;HPM_P2
2023/01/08 00:01:45;;;;;;;5.47;1.10;;;;;;;;;;5052204;28;20345;-63
2023/01/08 00:04:11;;;;;;;0.87;0.80;;;;;;;;;;5053282;28;20051;-63
2023/01/08 00:06:38;;;;;;;2.57;1.07;;;;;;;;;;5054269;28;20025;-63
2023/01/08 00:09:05;;;;;;;2.13;1.30;;;;;;;;;;5054018;28;20079;-63
2023/01/08 00:11:31;;;;;;;1.33;1.00;;;;;;;;;;5053968;28;20033;-63
2023/01/08 00:13:58;;;;;;;0.53;0.50;;;;;;;;;;5030173;28;20044;-63
2023/01/08 00:16:25;;;;;;;4.77;1.30;;;;;;;;;;5028720;28;20025;-63
2023/01/08 00:18:51;;;;;;;1.43;1.03;;;;;;;;;;5028469;28;20034;-63
2023/01/08 00:21:19;;;;;;;1.47;0.97;;;;;;;;;;5028622;28;20025;-62
2023/01/08 00:23:46;;;;;;;1.27;0.90;;;;;;;;;;5035183;28;20047;-62
2023/01/08 00:26:13;;;;;;;2.07;1.30;;;;;;;;;;5053756;28;20108;-63
2023/01/08 00:28:40;;;;;;;1.03;0.77;;;;;;;;;;5053758;28;20487;-63
2023/01/08 00:31:08;;;;;;;0.40;0.40;;;;;;;;;;5053662;28;20024;-63
2023/01/08 00:33:35;;;;;;;0.90;0.70;;;;;;;;;;5053628;28;20075;-63
2023/01/08 00:36:06;;;;;;;0.97;0.80;;;;;;;;;;5043199;28;20026;-62
2023/01/08 00:38:33;;;;;;;1.70;0.97;;;;;;;;;;5028260;28;20045;-63
2023/01/08 00:40:59;;;;;;;1.17;0.73;;;;;;;;;;5028304;28;20033;-62
2023/01/08 00:43:26;;;;;;;1.33;1.00;;;;;;;;;;5028138;28;20100;-62
2023/01/08 00:45:53;;;;;;;0.93;0.70;;;;;;;;;;5032595;28;20553;-63
2023/01/08 00:48:23;;;;;;;4.43;1.23;;;;;;;;;;5041926;28;20531;-63
2023/01/08 00:50:50;;;;;;;2.10;1.10;;;;;;;;;;5053519;28;20032;-63
2023/01/08 00:53:17;;;;;;;2.23;1.10;;;;;;;;;;5053023;28;20025;-63
2023/01/08 00:55:44;;;;;;;6.23;1.10;;;;;;;;;;5053242;28;20494;-63
2023/01/08 00:58:11;;;;;;;1.77;1.00;;;;;;;;;;5048614;28;20032;-63
2023/01/08 01:00:38;;;;;;;5.73;1.30;;;;;;;;;;5033822;28;20410;-62
2023/01/08 01:03:05;;;;;;;2.90;1.40;;;;;;;;;;5028099;28;20056;-62
2023/01/08 01:05:31;;;;;;;0.90;0.63;;;;;;;;;;5027722;28;20419;-63
2023/01/08 01:07:58;;;;;;;3.67;1.17;;;;;;;;;;5031541;28;20045;-63
2023/01/08 01:10:25;;;;;;;7.63;1.80;;;;;;;;;;5032620;28;20040;-63
2023/01/08 01:12:52;;;;;;;6.80;1.67;;;;;;;;;;5048261;28;20079;-63
2023/01/08 01:15:18;;;;;;;6.20;1.57;;;;;;;;;;5052832;28;20497;-63
2023/01/08 01:17:45;;;;;;;6.03;1.60;;;;;;;;;;5052807;28;20104;-63
2023/01/08 01:20:16;;;;;;;2.97;1.80;;;;;;;;;;5048858;28;20037;-62
2023/01/08 01:22:43;;;;;;;5.60;2.10;;;;;;;;;;5047420;28;20497;-63
2023/01/08 01:25:10;;;;;;;6.20;1.40;;;;;;;;;;5044279;28;20033;-62
2023/01/08 01:27:36;;;;;;;2.70;1.70;;;;;;;;;;5047053;28;20032;-63
2023/01/08 01:30:03;;;;;;;4.97;2.40;;;;;;;;;;5050427;28;20079;-63
2023/01/08 01:32:30;;;;;;;2.13;1.23;;;;;;;;;;5052724;28;20025;-63
2023/01/08 01:34:57;;;;;;;26.40;2.00;;;;;;;;;;5050625;28;20024;-62
2023/01/08 01:37:23;;;;;;;10.67;1.73;;;;;;;;;;5051927;28;20064;-62
2023/01/08 01:39:50;;;;;;;4.53;1.47;;;;;;;;;;5052394;28;20033;-63
2023/01/08 01:45:04;;;;;;;1.00;0.70;;;;;;;;;;5041667;28;20126;-63
2023/01/08 01:47:38;;;;;;;7.97;2.33;;;;;;;;;;5027115;28;20018;-62
2023/01/08 01:50:22;;;;;;;4.03;1.77;;;;;;;;;;5026935;28;20028;-62
2023/01/08 01:52:52;;;;;;;1.33;1.08;;;;;;;;;;5031165;28;20361;-62
2023/01/08 01:55:20;;;;;;;2.07;1.30;;;;;;;;;;5032377;28;20026;-62
2023/01/08 01:57:53;;;;;;;2.47;1.30;;;;;;;;;;5041478;28;20048;-62
2023/01/08 02:00:19;;;;;;;3.17;2.07;;;;;;;;;;5052314;28;20041;-62
2023/01/08 02:02:46;;;;;;;3.87;1.67;;;;;;;;;;5052258;28;20035;-63
2023/01/08 02:05:13;;;;;;;2.23;1.20;;;;;;;;;;5044929;28;20025;-63
2023/01/08 02:07:45;;;;;;;4.90;2.03;;;;;;;;;;5046723;28;20032;-62
2023/01/08 02:10:33;;;;;;;4.83;2.47;;;;;;;;;;5046467;28;20048;-62
2023/01/08 02:13:09;;;;;;;5.80;2.10;;;;;;;;;;5043694;28;20031;-62
2023/01/08 02:15:45;;;;;;;4.00;1.53;;;;;;;;;;5032074;28;20049;-63
2023/01/08 02:18:18;;;;;;;2.30;1.23;;;;;;;;;;5032000;28;20028;-62
2023/01/08 02:20:47;;;;;;;2.30;1.23;;;;;;;;;;5032250;28;20052;-62
2023/01/08 02:23:23;;;;;;;6.47;2.20;;;;;;;;;;5036169;28;20348;-62
2023/01/08 02:26:04;;;;;;;5.57;1.83;;;;;;;;;;5050276;28;20021;-63
2023/01/08 02:28:32;;;;;;;1.97;1.20;;;;;;;;;;5046389;28;20090;-62
2023/01/08 02:30:59;;;;;;;2.27;1.30;;;;;;;;;;5046528;28;20019;-63
2023/01/08 02:33:29;;;;;;;6.70;2.83;;;;;;;;;;5044462;28;20027;-62
2023/01/08 02:36:14;;;;;;;1.63;1.27;;;;;;;;;;5047290;28;20466;-62
2023/01/08 02:38:45;;;;;;;3.58;1.73;;;;;;;;;;5051763;28;20372;-62
2023/01/08 02:41:12;;;;;;;2.33;1.47;;;;;;;;;;5051985;28;20476;-63
2023/01/08 02:43:42;;;;;;;6.67;2.90;;;;;;;;;;5050032;28;20052;-62
2023/01/08 02:46:11;;;;;;;5.60;2.00;;;;;;;;;;5049372;28;20068;-63
2023/01/08 02:48:40;;;;;;;6.17;3.00;;;;;;;;;;5048923;28;20517;-63
2023/01/08 02:51:16;;;;;;;6.43;2.50;;;;;;;;;;5035468;28;20256;-62
2023/01/08 02:53:44;;;;;;;3.17;1.90;;;;;;;;;;5026530;28;20557;-62
2023/01/08 02:56:14;;;;;;;2.23;1.40;;;;;;;;;;5026428;28;20037;-63
2023/01/08 02:58:41;;;;;;;2.20;1.53;;;;;;;;;;5031736;28;20029;-62
2023/01/08 03:01:10;;;;;;;4.93;2.67;;;;;;;;;;5044335;28;20059;-62
2023/01/08 03:03:38;;;;;;;5.83;2.93;;;;;;;;;;5055085;28;20360;-62
2023/01/08 03:06:10;;;;;;;5.53;2.17;;;;;;;;;;5044718;28;20032;-62
2023/01/08 03:08:39;;;;;;;6.57;1.50;;;;;;;;;;5035420;28;20037;-63
2023/01/08 03:11:07;;;;;;;3.70;1.80;;;;;;;;;;5032514;28;20029;-62
2023/01/08 03:13:54;;;;;;;3.47;1.70;;;;;;;;;;5033099;28;20371;-62
2023/01/08 03:16:23;;;;;;;4.27;2.27;;;;;;;;;;5049771;28;20021;-62
2023/01/08 03:18:52;;;;;;;7.77;2.77;;;;;;;;;;5049647;28;20391;-62
2023/01/08 03:21:21;;;;;;;2.27;1.87;;;;;;;;;;5039936;28;20056;-62
2023/01/08 03:23:49;;;;;;;1.53;1.37;;;;;;;;;;5035106;28;20041;-62
2023/01/08 03:26:19;;;;;;;3.83;2.40;;;;;;;;;;5034743;28;20110;-63
2023/01/08 03:28:48;;;;;;;3.93;1.73;;;;;;;;;;5035202;28;20037;-62
2023/01/08 03:31:15;;;;;;;6.83;3.80;;;;;;;;;;5045618;28;20067;-62
2023/01/08 03:33:44;;;;;;;2.87;1.80;;;;;;;;;;5051192;28;20361;-62
2023/01/08 03:36:13;;;;;;;4.03;2.43;;;;;;;;;;5049265;28;20375;-62
2023/01/08 03:38:43;;;;;;;1.97;1.60;;;;;;;;;;5049273;28;20052;-63
2023/01/08 03:41:12;;;;;;;3.83;2.60;;;;;;;;;;5049388;28;20075;-62
2023/01/08 03:43:39;;;;;;;3.03;1.80;;;;;;;;;;5040178;28;20029;-63
2023/01/08 03:46:15;;;;;;;3.87;1.93;;;;;;;;;;5034728;28;20094;-63
2023/01/08 03:48:42;;;;;;;3.37;1.77;;;;;;;;;;5034780;28;20029;-62
2023/01/08 03:51:09;;;;;;;4.50;2.53;;;;;;;;;;5034620;28;20099;-62
2023/01/08 03:53:36;;;;;;;3.37;2.30;;;;;;;;;;5034193;28;20029;-62
2023/01/08 03:56:03;;;;;;;2.70;2.00;;;;;;;;;;5043261;28;20029;-62
2023/01/08 03:58:30;;;;;;;5.17;1.60;;;;;;;;;;5046231;28;20028;-63
2023/01/08 04:00:56;;;;;;;8.60;1.67;;;;;;;;;;5047994;28;20080;-62
2023/01/08 04:03:23;;;;;;;1.07;0.90;;;;;;;;;;5048910;28;20025;-62
2023/01/08 04:05:50;;;;;;;2.13;1.60;;;;;;;;;;5051702;28;20021;-62
2023/01/08 04:08:16;;;;;;;4.73;2.37;;;;;;;;;;5047576;28;20022;-62
2023/01/08 04:10:43;;;;;;;1.83;1.40;;;;;;;;;;5033658;28;20029;-62
2023/01/08 04:13:10;;;;;;;1.23;0.87;;;;;;;;;;5034166;28;20049;-62
2023/01/08 04:15:36;;;;;;;3.70;2.00;;;;;;;;;;5034303;28;20018;-62
2023/01/08 04:18:03;;;;;;;2.70;1.70;;;;;;;;;;5032068;28;20032;-62
2023/01/08 04:20:30;;;;;;;1.47;1.10;;;;;;;;;;5048117;28;20033;-63
2023/01/08 04:22:56;;;;;;;7.10;1.57;;;;;;;;;;5048511;28;20033;-62
2023/01/08 04:25:23;;;;;;;9.77;1.93;;;;;;;;;;5048525;28;20064;-62
2023/01/08 04:27:50;;;;;;;6.07;1.80;;;;;;;;;;5050614;28;20028;-62
2023/01/08 04:30:16;;;;;;;2.30;1.53;;;;;;;;;;5049099;28;20108;-62
2023/01/08 04:32:43;;;;;;;3.37;1.97;;;;;;;;;;5033822;28;20468;-62
2023/01/08 04:35:10;;;;;;;2.73;1.67;;;;;;;;;;5033784;28;20427;-62
2023/01/08 04:37:36;;;;;;;4.53;1.70;;;;;;;;;;5034008;28;20407;-62
2023/01/08 04:40:03;;;;;;;18.23;2.50;;;;;;;;;;5030844;28;20083;-62
2023/01/08 04:42:30;;;;;;;3.20;2.07;;;;;;;;;;5034730;28;20365;-62
2023/01/08 04:44:56;;;;;;;1.37;1.03;;;;;;;;;;5046907;28;20409;-62
2023/01/08 04:47:23;;;;;;;5.10;2.60;;;;;;;;;;5048302;28;20205;-62
2023/01/08 04:49:50;;;;;;;1.27;0.87;;;;;;;;;;5038098;28;20114;-62
2023/01/08 04:52:16;;;;;;;3.27;1.80;;;;;;;;;;5039050;28;20369;-62
2023/01/08 04:54:43;;;;;;;18.23;2.43;;;;;;;;;;5036806;28;20033;-62
2023/01/08 04:57:10;;;;;;;0.70;0.50;;;;;;;;;;5043462;28;20029;-62
2023/01/08 04:59:37;;;;;;;1.00;0.73;;;;;;;;;;5045182;28;20190;-62
2023/01/08 05:02:03;;;;;;;0.90;0.73;;;;;;;;;;5046682;28;20033;-62
2023/01/08 05:04:30;;;;;;;3.40;1.10;;;;;;;;;;5038029;28;20033;-62
2023/01/08 05:06:57;;;;;;;5.17;1.63;;;;;;;;;;5047056;28;20040;-62
2023/01/08 05:09:23;;;;;;;1.53;1.43;;;;;;;;;;5047787;28;20135;-62
2023/01/08 05:11:50;;;;;;;3.07;1.97;;;;;;;;;;5044523;28;20483;-62
2023/01/08 05:14:17;;;;;;;1.73;1.40;;;;;;;;;;5033361;28;20026;-62
2023/01/08 05:16:43;;;;;;;3.00;1.37;;;;;;;;;;5043165;28;20107;-62
2023/01/08 05:19:10;;;;;;;2.43;1.50;;;;;;;;;;5049580;28;20032;-62
2023/01/08 05:21:37;;;;;;;4.17;1.20;;;;;;;;;;5038046;28;20029;-62
2023/01/08 05:24:04;;;;;;;1.03;0.57;;;;;;;;;;5031537;28;20048;-62
2023/01/08 05:26:30;;;;;;;1.53;1.13;;;;;;;;;;5028217;28;20052;-62
2023/01/08 05:28:57;;;;;;;3.33;1.70;;;;;;;;;;5047919;28;20061;-62
2023/01/08 05:31:24;;;;;;;1.43;1.30;;;;;;;;;;5036311;28;20464;-62
2023/01/08 05:33:51;;;;;;;18.77;1.90;;;;;;;;;;5044757;28;20071;-61
2023/01/08 05:36:17;;;;;;;1.20;0.83;;;;;;;;;;5044143;28;20039;-61
2023/01/08 05:38:44;;;;;;;2.27;1.37;;;;;;;;;;5032973;28;20034;-61
2023/01/08 05:41:11;;;;;;;43.77;2.27;;;;;;;;;;5036479;28;20022;-62
2023/01/08 05:43:38;;;;;;;4.20;0.83;;;;;;;;;;5029865;28;20069;-61
2023/01/08 05:46:05;;;;;;;3.97;1.83;;;;;;;;;;5031361;28;20480;-61
2023/01/08 05:48:36;;;;;;;8.53;1.13;;;;;;;;;;5027382;28;20376;-62
2023/01/08 05:51:03;;;;;;;19.07;1.63;;;;;;;;;;5027340;28;20079;-61
2023/01/08 05:53:33;;;;;;;1.87;1.10;;;;;;;;;;5027470;28;20539;-62
2023/01/08 05:56:04;;;;;;;1.10;0.97;;;;;;;;;;5046879;28;20047;-62
2023/01/08 05:58:31;;;;;;;1.03;0.80;;;;;;;;;;5052323;28;20035;-61
2023/01/08 06:01:05;;;;;;;2.40;1.27;;;;;;;;;;5052308;28;20035;-61
2023/01/08 06:03:32;;;;;;;2.13;1.40;;;;;;;;;;5051901;28;20098;-61
2023/01/08 06:06:00;;;;;;;1.93;1.33;;;;;;;;;;5050959;28;20048;-61
2023/01/08 06:08:27;;;;;;;3.10;1.67;;;;;;;;;;5043079;28;20040;-61
2023/01/08 06:10:54;;;;;;;3.90;1.57;;;;;;;;;;5047015;28;20035;-61
2023/01/08 06:13:21;;;;;;;3.60;2.37;;;;;;;;;;5047132;28;20025;-61
2023/01/08 06:15:47;;;;;;;2.30;1.53;;;;;;;;;;5047042;28;20029;-62
2023/01/08 06:18:14;;;;;;;4.00;1.93;;;;;;;;;;5037281;28;20029;-61
2023/01/08 06:20:41;;;;;;;3.47;1.20;;;;;;;;;;5032144;28;20032;-61
2023/01/08 06:23:08;;;;;;;1.07;0.97;;;;;;;;;;5041573;28;20405;-61
2023/01/08 06:25:35;;;;;;;1.80;1.27;;;;;;;;;;5051901;28;20036;-61
2023/01/08 06:28:02;;;;;;;0.83;0.73;;;;;;;;;;5051499;28;20052;-62
2023/01/08 06:30:29;;;;;;;2.97;1.70;;;;;;;;;;5051189;28;20104;-61
2023/01/08 06:32:56;;;;;;;3.23;1.60;;;;;;;;;;5043105;28;20346;-61
2023/01/08 06:35:23;;;;;;;1.67;1.10;;;;;;;;;;5030574;28;20056;-61
2023/01/08 06:37:50;;;;;;;2.00;1.20;;;;;;;;;;5030988;28;20381;-61
2023/01/08 06:40:17;;;;;;;5.73;1.20;;;;;;;;;;5036056;28;20045;-62
2023/01/08 06:42:45;;;;;;;4.93;1.90;;;;;;;;;;5055796;28;20028;-61
2023/01/08 06:45:12;;;;;;;1.43;1.33;;;;;;;;;;5055842;28;20021;-62
2023/01/08 06:47:38;;;;;;;0.93;0.77;;;;;;;;;;5055885;28;20050;-61
2023/01/08 06:50:05;;;;;;;1.93;1.33;;;;;;;;;;5052462;28;20025;-61
2023/01/08 06:52:32;;;;;;;8.67;2.57;;;;;;;;;;5035107;28;20096;-61
2023/01/08 06:54:59;;;;;;;3.63;2.30;;;;;;;;;;5030560;28;20361;-62
2023/01/08 06:57:25;;;;;;;2.03;1.60;;;;;;;;;;5030533;28;20357;-61
2023/01/08 06:59:52;;;;;;;1.90;1.40;;;;;;;;;;5030270;28;20037;-61
2023/01/08 07:02:19;;;;;;;4.57;2.17;;;;;;;;;;5030926;28;20029;-61
2023/01/08 07:04:46;;;;;;;5.10;1.57;;;;;;;;;;5035289;28;20026;-61
2023/01/08 07:07:13;;;;;;;3.47;2.17;;;;;;;;;;5035411;28;20259;-61
2023/01/08 07:09:40;;;;;;;1.73;1.47;;;;;;;;;;5035197;28;20056;-61
2023/01/08 07:12:09;;;;;;;2.00;1.37;;;;;;;;;;5035428;28;20032;-61
2023/01/08 07:14:35;;;;;;;1.90;1.30;;;;;;;;;;5040513;28;20028;-61
2023/01/08 07:17:02;;;;;;;1.43;1.20;;;;;;;;;;5050165;28;20028;-61
2023/01/08 07:19:30;;;;;;;2.83;1.77;;;;;;;;;;5050001;28;20484;-61
2023/01/08 07:21:56;;;;;;;1.00;0.90;;;;;;;;;;5049970;28;20656;-61
2023/01/08 07:24:23;;;;;;;1.23;0.90;;;;;;;;;;5049581;28;20284;-61
2023/01/08 07:26:50;;;;;;;1.00;0.90;;;;;;;;;;5045781;28;20320;-61
2023/01/08 07:29:16;;;;;;;2.23;1.13;;;;;;;;;;5054590;28;20033;-61
2023/01/08 07:31:43;;;;;;;9.30;1.53;;;;;;;;;;5054948;28;20036;-61
2023/01/08 07:34:10;;;;;;;9.10;1.10;;;;;;;;;;5054852;28;20262;-61
2023/01/08 07:36:36;;;;;;;2.00;1.70;;;;;;;;;;5055139;28;20434;-61
2023/01/08 07:39:03;;;;;;;3.97;2.10;;;;;;;;;;5037740;28;20045;-61
2023/01/08 07:41:30;;;;;;;2.63;1.90;;;;;;;;;;5029375;28;20267;-61
2023/01/08 07:43:56;;;;;;;1.90;1.70;;;;;;;;;;5029044;28;20293;-61
2023/01/08 07:46:23;;;;;;;3.40;2.30;;;;;;;;;;5029539;28;20262;-61
2023/01/08 07:48:50;;;;;;;2.10;1.40;;;;;;;;;;5033676;28;20255;-61
2023/01/08 07:51:16;;;;;;;2.87;1.97;;;;;;;;;;5046267;28;20280;-61
2023/01/08 07:53:43;;;;;;;2.10;1.47;;;;;;;;;;5054605;28;20337;-61
2023/01/08 07:56:10;;;;;;;2.13;1.43;;;;;;;;;;5054136;28;20273;-61
2023/01/08 07:58:37;;;;;;;0.93;0.73;;;;;;;;;;5054287;28;20345;-60
2023/01/08 08:01:07;;;;;;;0.97;0.87;;;;;;;;;;5050098;28;20262;-61
2023/01/08 08:03:34;;;;;;;1.00;0.90;;;;;;;;;;5037660;28;20267;-61
2023/01/08 08:06:01;;;;;;;1.93;1.43;;;;;;;;;;5029386;28;20746;-61
2023/01/08 08:08:27;;;;;;;2.10;1.50;;;;;;;;;;5029077;28;20297;-61
2023/01/08 08:10:54;;;;;;;3.27;1.90;;;;;;;;;;5032868;28;20267;-61
2023/01/08 08:13:20;;;;;;;1.27;1.00;;;;;;;;;;5033822;28;20259;-61
2023/01/08 08:15:47;;;;;;;1.43;1.23;;;;;;;;;;5037619;28;20757;-61
2023/01/08 08:18:14;;;;;;;2.20;1.57;;;;;;;;;;5034438;28;20718;-61
2023/01/08 08:20:40;;;;;;;3.67;2.23;;;;;;;;;;5034065;28;20328;-61
2023/01/08 08:23:08;;;;;;;1.60;1.27;;;;;;;;;;5030257;28;20277;-62
2023/01/08 08:25:35;;;;;;;1.83;1.27;;;;;;;;;;5028964;28;20605;-61
2023/01/08 08:28:03;;;;;;;1.20;0.97;;;;;;;;;;5040314;28;21055;-61
2023/01/08 08:30:30;;;;;;;1.23;0.80;;;;;;;;;;5048737;28;20772;-61
2023/01/08 08:33:00;;;;;;;1.27;0.97;;;;;;;;;;5051728;28;20361;-61
2023/01/08 08:35:27;;;;;;;2.07;0.90;;;;;;;;;;5053700;28;20265;-61
2023/01/08 08:37:54;;;;;;;0.97;0.83;;;;;;;;;;5053801;28;20254;-61
2023/01/08 08:40:21;;;;;;;0.63;0.60;;;;;;;;;;5037749;28;20298;-61
2023/01/08 08:42:48;;;;;;;1.83;1.33;;;;;;;;;;5033662;28;20271;-60
2023/01/08 08:45:14;;;;;;;1.60;1.00;;;;;;;;;;5029633;28;20255;-61
2023/01/08 08:47:41;;;;;;;1.73;1.10;;;;;;;;;;5028424;28;20547;-62
2023/01/08 08:50:08;;;;;;;2.87;1.57;;;;;;;;;;5028496;28;20263;-61
2023/01/08 08:52:36;;;;;;;1.23;1.13;;;;;;;;;;5046945;28;20721;-61
2023/01/08 08:55:03;;;;;;;1.10;0.90;;;;;;;;;;5051497;28;20276;-61
2023/01/08 08:57:29;;;;;;;1.73;1.13;;;;;;;;;;5053353;28;20278;-61
2023/01/08 08:59:56;;;;;;;1.47;1.10;;;;;;;;;;5052731;28;20290;-61
2023/01/08 09:02:23;;;;;;;1.30;1.00;;;;;;;;;;5040045;28;20263;-61
2023/01/08 09:04:49;;;;;;;0.77;0.77;;;;;;;;;;5033323;28;20346;-61
2023/01/08 09:07:16;;;;;;;1.27;1.17;;;;;;;;;;5029909;28;20258;-61
2023/01/08 09:09:43;;;;;;;2.93;2.27;;;;;;;;;;5027915;28;20263;-61
2023/01/08 09:12:10;;;;;;;2.07;1.47;;;;;;;;;;5038952;28;20274;-60
2023/01/08 09:14:36;;;;;;;2.60;1.63;;;;;;;;;;5047988;28;20254;-61
2023/01/08 09:17:03;;;;;;;3.73;2.13;;;;;;;;;;5035605;28;20305;-61
2023/01/08 09:19:30;;;;;;;2.00;1.40;;;;;;;;;;5033168;28;20318;-61
2023/01/08 09:21:56;;;;;;;1.03;0.90;;;;;;;;;;5033054;28;20807;-61
2023/01/08 09:24:23;;;;;;;1.77;1.37;;;;;;;;;;5032984;28;20308;-61
2023/01/08 09:26:53;;;;;;;1.07;0.80;;;;;;;;;;5033940;28;20274;-60
2023/01/08 09:29:19;;;;;;;4.83;1.60;;;;;;;;;;5029673;28;20265;-61
2023/01/08 09:31:46;;;;;;;1.83;1.63;;;;;;;;;;5039000;28;20786;-61
2023/01/08 09:34:13;;;;;;;2.10;1.40;;;;;;;;;;5047275;28;20365;-61
2023/01/08 09:36:40;;;;;;;2.57;1.70;;;;;;;;;;5047787;28;20259;-61
2023/01/08 09:39:06;;;;;;;1.73;1.20;;;;;;;;;;5050026;28;20274;-60
2023/01/08 09:41:34;;;;;;;1.43;1.07;;;;;;;;;;5043186;28;20263;-61
2023/01/08 09:44:03;;;;;;;2.70;1.73;;;;;;;;;;5032826;28;20262;-61
2023/01/08 09:46:29;;;;;;;15.60;1.83;;;;;;;;;;5032163;28;20281;-61
2023/01/08 09:49:01;;;;;;;3.23;1.50;;;;;;;;;;5032649;28;20285;-61
2023/01/08 09:51:33;;;;;;;0.83;0.70;;;;;;;;;;5029409;28;20263;-61
2023/01/08 09:53:59;;;;;;;1.57;1.23;;;;;;;;;;5040921;28;20262;-61
2023/01/08 09:56:26;;;;;;;1.67;1.20;;;;;;;;;;5047197;28;20265;-61
2023/01/08 09:58:55;;;;;;;2.03;1.50;;;;;;;;;;5046890;28;20324;-61
2023/01/08 10:01:26;;;;;;;1.57;1.00;;;;;;;;;;5049538;28;20767;-61
2023/01/08 10:04:16;;;;;;;1.20;0.90;;;;;;;;;;5052190;28;20605;-61
2023/01/08 10:07:05;;;;;;;2.37;1.70;;;;;;;;;;5050728;28;20316;-61
2023/01/08 10:09:32;;;;;;;1.93;1.20;;;;;;;;;;5052234;28;20301;-61
2023/01/08 10:12:01;;;;;;;1.37;1.20;;;;;;;;;;5052090;28;20833;-61
2023/01/08 10:14:33;;;;;;;1.03;0.90;;;;;;;;;;5047298;28;20486;-60
2023/01/08 10:17:14;;;;;;;13.40;2.50;;;;;;;;;;5041176;28;20270;-61
2023/01/08 10:19:40;;;;;;;1.20;1.10;;;;;;;;;;5027149;28;20836;-61
2023/01/08 10:22:15;;;;;;;1.70;1.27;;;;;;;;;;5027219;28;20607;-61
2023/01/08 10:24:42;;;;;;;1.00;0.88;;;;;;;;;;5032008;28;20799;-61
2023/01/08 10:27:11;;;;;;;1.87;1.40;;;;;;;;;;5032133;28;20076;-61
2023/01/08 10:29:41;;;;;;;1.93;1.33;;;;;;;;;;5043196;28;20264;-61
2023/01/08 10:32:16;;;;;;;15.30;1.50;;;;;;;;;;5050880;28;20620;-61
2023/01/08 10:34:44;;;;;;;1.60;1.33;;;;;;;;;;5051349;28;20270;-61
2023/01/08 10:37:29;;;;;;;1.10;0.97;;;;;;;;;;5046972;28;20103;-61
2023/01/08 10:40:00;;;;;;;1.55;1.17;;;;;;;;;;5046493;28;20289;-61
2023/01/08 10:42:27;;;;;;;0.83;0.70;;;;;;;;;;5029096;28;20033;-61
2023/01/08 10:44:59;;;;;;;0.53;0.50;;;;;;;;;;5027529;28;20337;-60
2023/01/08 10:47:28;;;;;;;1.03;0.83;;;;;;;;;;5032165;28;20267;-61
2023/01/08 10:49:55;;;;;;;0.50;0.50;;;;;;;;;;5031914;28;20258;-61
2023/01/08 10:52:27;;;;;;;0.60;0.57;;;;;;;;;;5031745;28;20263;-61
2023/01/08 10:54:54;;;;;;;2.27;0.80;;;;;;;;;;5050014;28;20262;-60
2023/01/08 10:57:22;;;;;;;1.40;1.07;;;;;;;;;;5050293;28;20343;-61
2023/01/08 10:59:49;;;;;;;0.60;0.50;;;;;;;;;;5046461;28;20769;-61
2023/01/08 11:02:29;;;;;;;2.07;1.63;;;;;;;;;;5046668;28;20614;-61
2023/01/08 11:04:56;;;;;;;3.63;1.50;;;;;;;;;;5042505;28;20266;-61
2023/01/08 11:07:23;;;;;;;2.13;0.93;;;;;;;;;;5028015;28;20258;-61
2023/01/08 11:09:51;;;;;;;1.10;0.90;;;;;;;;;;5031734;28;20813;-61
2023/01/08 11:12:33;;;;;;;1.23;0.93;;;;;;;;;;5032183;28;20628;-60
2023/01/08 11:15:00;;;;;;;1.03;0.90;;;;;;;;;;5031842;28;20255;-60
2023/01/08 11:17:27;;;;;;;0.70;0.50;;;;;;;;;;5040011;28;20281;-60
2023/01/08 11:19:54;;;;;;;1.67;1.50;;;;;;;;;;5052670;28;20297;-61
2023/01/08 11:22:22;;;;;;;1.47;1.10;;;;;;;;;;5050043;28;20266;-61
2023/01/08 11:24:52;;;;;;;0.80;0.70;;;;;;;;;;5048960;28;20304;-61
2023/01/08 11:27:22;;;;;;;0.97;0.73;;;;;;;;;;5030146;28;20271;-60
2023/01/08 11:29:52;;;;;;;2.07;1.37;;;;;;;;;;5031860;28;20587;-60
2023/01/08 11:32:45;;;;;;;1.73;1.23;;;;;;;;;;5034868;28;20255;-60
2023/01/08 11:35:24;;;;;;;1.67;1.40;;;;;;;;;;5037372;28;20669;-60
2023/01/08 11:37:53;;;;;;;1.97;1.37;;;;;;;;;;5054662;28;20254;-60
2023/01/08 11:40:31;;;;;;;1.60;1.47;;;;;;;;;;5055015;28;20286;-61
2023/01/08 11:43:13;;;;;;;1.23;0.73;;;;;;;;;;5050618;28;20368;-61
2023/01/08 11:45:48;;;;;;;0.90;0.80;;;;;;;;;;5049588;28;20744;-60
2023/01/08 11:48:17;;;;;;;1.00;0.90;;;;;;;;;;5034220;28;20258;-60
2023/01/08 11:50:54;;;;;;;1.00;0.90;;;;;;;;;;5029532;28;20025;-60
2023/01/08 11:53:20;;;;;;;1.00;0.87;;;;;;;;;;5034541;28;20729;-58
2023/01/08 11:55:56;;;;;;;0.77;0.77;;;;;;;;;;5034628;28;20601;-58
2023/01/08 11:58:23;;;;;;;1.33;1.07;;;;;;;;;;5034242;28;20255;-57
2023/01/08 12:00:50;;;;;;;1.40;1.03;;;;;;;;;;5051649;28;20285;-58
2023/01/08 12:03:16;;;;;;;1.30;1.20;;;;;;;;;;5054352;28;20258;-58
2023/01/08 12:05:43;;;;;;;4.43;1.37;;;;;;;;;;5049214;28;20262;-59
2023/01/08 12:08:22;;;;;;;1.50;1.20;;;;;;;;;;5049165;28;20258;-58
2023/01/08 12:11:02;;;;;;;2.40;1.33;;;;;;;;;;5049032;28;20345;-58
2023/01/08 12:13:47;;;;;;;1.40;0.97;;;;;;;;;;5029278;28;20277;-58
2023/01/08 12:16:34;;;;;;;2.28;1.42;;;;;;;;;;5034244;28;20259;-57
2023/01/08 12:19:17;;;;;;;1.30;1.07;;;;;;;;;;5034184;28;20026;-58
2023/01/08 12:22:01;;;;;;;0.90;0.77;;;;;;;;;;5034312;28;20783;-58
2023/01/08 12:24:51;;;;;;;2.73;0.97;;;;;;;;;;5043133;28;20399;-58
2023/01/08 12:27:38;;;;;;;1.17;0.80;;;;;;;;;;5049100;28;20312;-57
2023/01/08 12:30:13;;;;;;;1.77;1.10;;;;;;;;;;5048625;28;20261;-58
2023/01/08 12:32:46;;;;;;;0.50;0.40;;;;;;;;;;5048698;28;20329;-58
2023/01/08 12:35:22;;;;;;;0.83;0.70;;;;;;;;;;5048722;28;20029;-58
2023/01/08 12:38:12;;;;;;;1.80;1.27;;;;;;;;;;5034969;28;20266;-58
2023/01/08 12:40:51;;;;;;;4.27;0.90;;;;;;;;;;5032739;28;20723;-58
2023/01/08 12:43:31;;;;;;;1.10;0.90;;;;;;;;;;5033773;28;20273;-58
2023/01/08 12:45:59;;;;;;;0.77;0.73;;;;;;;;;;5033779;28;20259;-58
2023/01/08 12:48:31;;;;;;;1.37;1.10;;;;;;;;;;5036389;28;20258;-58
2023/01/08 12:51:06;;;;;;;0.77;0.70;;;;;;;;;;5048269;28;20250;-58
2023/01/08 12:53:51;;;;;;;0.20;0.20;;;;;;;;;;5048402;28;20345;-58
2023/01/08 12:56:21;;;;;;;0.25;0.25;;;;;;;;;;5048278;28;20256;-58
2023/01/08 12:58:48;;;;;;;2.47;0.53;;;;;;;;;;5050120;28;20471;-58
2023/01/08 13:01:33;;;;;;;0.30;0.30;;;;;;;;;;5042946;28;20812;-58
2023/01/08 13:04:03;;;;;;;3.70;0.90;;;;;;;;;;5033375;28;20851;-60
2023/01/08 13:06:30;;;;;;;0.13;0.13;;;;;;;;;;5033401;28;20471;-58
2023/01/08 13:08:58;;;;;;;0.77;0.57;;;;;;;;;;5032909;28;20247;-58
2023/01/08 13:11:28;;;;;;;1.10;1.00;;;;;;;;;;5030076;28;20610;-58
2023/01/08 13:14:02;;;;;;;1.03;0.70;;;;;;;;;;5044755;28;20660;-58
2023/01/08 13:16:30;;;;;;;1.13;0.80;;;;;;;;;;5047724;28;20774;-57
2023/01/08 13:18:58;;;;;;;1.30;0.73;;;;;;;;;;5047799;28;20737;-58
2023/01/08 13:21:37;;;;;;;0.57;0.40;;;;;;;;;;5050492;28;20384;-58
2023/01/08 13:24:27;;;;;;;0.20;0.20;;;;;;;;;;5051129;28;20254;-58
2023/01/08 13:26:54;;;;;;;0.73;0.70;;;;;;;;;;5052126;28;20262;-58
2023/01/08 13:29:25;;;;;;;0.67;0.63;;;;;;;;;;5052448;28;20250;-58
2023/01/08 13:31:52;;;;;;;1.30;1.03;;;;;;;;;;5043456;28;20270;-58
2023/01/08 13:34:33;;;;;;;1.17;0.70;;;;;;;;;;5047651;28;20265;-59
2023/01/08 13:37:00;;;;;;;1.03;0.80;;;;;;;;;;5047549;28;20304;-58
2023/01/08 13:39:36;;;;;;;3.27;1.50;;;;;;;;;;5047404;28;20794;-58
2023/01/08 13:42:15;;;;;;;1.97;1.10;;;;;;;;;;5038932;28;20361;-57
2023/01/08 13:44:47;;;;;;;11.20;3.13;;;;;;;;;;5032704;28;20266;-58
2023/01/08 13:47:33;;;;;;;1.23;0.83;;;;;;;;;;5032651;28;20242;-58
2023/01/08 13:49:59;;;;;;;;;;;;;;;;;;5032954;28;20346;-58
2023/01/08 13:52:39;;;;;;;0.90;0.87;;;;;;;;;;5042116;28;19909;-60
2023/01/08 13:55:11;;;;;;;2.53;1.20;;;;;;;;;;5050303;28;20676;-60
2023/01/08 13:57:40;;;;;;;1.53;1.20;;;;;;;;;;5047034;28;20756;-60
2023/01/08 14:00:09;;;;;;;2.50;1.10;;;;;;;;;;5047068;28;20380;-60
2023/01/08 14:02:49;;;;;;;1.00;0.90;;;;;;;;;;5046913;28;20293;-60
2023/01/08 14:05:20;;;;;;;1.80;1.17;;;;;;;;;;5033529;28;20750;-61
2023/01/08 14:07:47;;;;;;;5.93;1.40;;;;;;;;;;5032431;28;20726;-60
2023/01/08 14:10:14;;;;;;;8.87;1.60;;;;;;;;;;5031968;28;20275;-61
2023/01/08 14:12:41;;;;;;;1.93;0.83;;;;;;;;;;5032372;28;20329;-60
2023/01/08 14:15:10;;;;;;;1.20;0.80;;;;;;;;;;5032403;28;20255;-60
2023/01/08 14:17:37;;;;;;;3.07;1.50;;;;;;;;;;5029312;28;20345;-60
2023/01/08 14:20:09;;;;;;;2.80;1.53;;;;;;;;;;5026989;28;20286;-61
2023/01/08 14:22:36;;;;;;;2.63;1.17;;;;;;;;;;5026582;28;20293;-60
2023/01/08 14:25:05;;;;;;;1.90;1.20;;;;;;;;;;5027113;28;20282;-60
2023/01/08 14:27:32;;;;;;;1.37;1.00;;;;;;;;;;5032908;28;20273;-61
2023/01/08 14:29:59;;;;;;;2.40;1.10;;;;;;;;;;5052029;28;20254;-61
2023/01/08 14:32:28;;;;;;;1.70;0.97;;;;;;;;;;5051978;28;20506;-61
2023/01/08 14:34:56;;;;;;;1.73;1.17;;;;;;;;;;5052098;28;20029;-61
2023/01/08 14:37:22;;;;;;;2.73;1.80;;;;;;;;;;5051670;28;20029;-61
2023/01/08 14:39:52;;;;;;;2.77;1.83;;;;;;;;;;5044538;28;20041;-60
2023/01/08 14:45:09;;;;;;;3.80;2.17;;;;;;;;;;5027121;28;20044;-61
2023/01/08 14:47:40;;;;;;;2.50;1.53;;;;;;;;;;5026787;28;20041;-61
2023/01/08 14:50:07;;;;;;;24.93;2.20;;;;;;;;;;5036060;28;20033;-61
2023/01/08 14:52:34;;;;;;;6.00;2.20;;;;;;;;;;5053062;28;20021;-61
2023/01/08 14:55:02;;;;;;;2.23;1.67;;;;;;;;;;5055892;28;20368;-61
2023/01/08 14:57:30;;;;;;;1.37;1.00;;;;;;;;;;5036192;28;20033;-61
2023/01/08 14:59:58;;;;;;;2.13;1.37;;;;;;;;;;5035349;28;20487;-61
2023/01/08 15:02:27;;;;;;;2.03;1.60;;;;;;;;;;5031550;28;20040;-61